createdAt,value
2022-10-05T00:00:51.353Z,78.90
2022-10-05T00:03:18.327Z,78.68
2022-10-05T00:05:46.439Z,78.67
2022-10-05T00:08:24.549Z,78.29
2022-10-05T00:10:52.027Z,78.88
2022-10-05T00:13:29.455Z,78.28
2022-10-05T00:16:12.035Z,78.43
2022-10-05T00:18:40.328Z,78.18
2022-10-05T00:21:33.536Z,78.56
2022-10-05T00:24:01.582Z,78.38
2022-10-05T00:26:33.459Z,78.54
2022-10-05T00:29:02.825Z,78.81
2022-10-05T00:31:33.081Z,78.38
2022-10-05T00:34:00.455Z,78.65
2022-10-05T00:36:27.935Z,78.61
2022-10-05T00:38:55.395Z,78.64
2022-10-05T00:41:50.109Z,78.94
2022-10-05T00:44:29.318Z,78.65
2022-10-05T00:47:18.232Z,78.42
2022-10-05T00:50:07.092Z,78.20
2022-10-05T00:53:01.460Z,78.62
2022-10-05T00:55:53.591Z,78.44
2022-10-05T00:58:56.776Z,79.00
2022-10-05T01:01:52.966Z,78.90
2022-10-05T01:04:59.237Z,78.64
2022-10-05T01:07:47.516Z,78.94
2022-10-05T01:10:34.285Z,79.05
2022-10-05T01:13:32.527Z,78.58
2022-10-05T01:16:15.774Z,78.48
2022-10-05T01:19:12.967Z,79.09
2022-10-05T01:22:23.050Z,79.17
2022-10-05T01:25:34.875Z,79.22
2022-10-05T01:28:24.984Z,79.02
2022-10-05T01:31:21.119Z,79.58
2022-10-05T01:34:36.657Z,79.11
2022-10-05T01:37:13.403Z,79.03
2022-10-05T01:40:08.917Z,79.38
2022-10-05T01:43:04.130Z,78.95
2022-10-05T01:45:59.027Z,79.47
2022-10-05T01:48:55.062Z,79.24
2022-10-05T01:51:45.984Z,79.26
2022-10-05T01:54:38.245Z,79.86
2022-10-05T01:57:20.364Z,79.50
2022-10-05T02:00:01.795Z,79.58
2022-10-05T02:02:32.190Z,80.19
2022-10-05T02:05:29.342Z,79.79
2022-10-05T02:08:02.398Z,80.17
2022-10-05T02:10:36.997Z,80.12
2022-10-05T02:13:17.240Z,80.02
2022-10-05T02:15:51.987Z,80.10
2022-10-05T02:18:29.193Z,79.63
2022-10-05T02:21:02.543Z,79.92
2022-10-05T02:23:36.788Z,79.76
2022-10-05T02:26:06.751Z,79.16
2022-10-05T02:28:50.226Z,79.44
2022-10-05T02:31:30.186Z,79.84
2022-10-05T02:34:37.609Z,79.53
2022-10-05T02:37:29.968Z,80.07
2022-10-05T02:40:15.521Z,79.99
2022-10-05T02:42:54.374Z,80.06
2022-10-05T02:45:44.696Z,79.66
2022-10-05T02:48:29.750Z,79.85
2022-10-05T02:51:23.346Z,79.73
2022-10-05T02:54:28.316Z,80.18
2022-10-05T02:57:00.882Z,79.78
2022-10-05T02:59:37.670Z,79.95
2022-10-05T03:02:41.873Z,79.86
2022-10-05T03:05:16.246Z,79.77
2022-10-05T03:08:02.307Z,79.45
2022-10-05T03:11:11.143Z,79.52
2022-10-05T03:14:38.147Z,79.33
2022-10-05T03:17:19.313Z,79.27
2022-10-05T03:20:04.200Z,79.71
2022-10-05T03:22:58.510Z,79.71
2022-10-05T03:25:47.154Z,79.72
2022-10-05T03:28:44.514Z,78.85
2022-10-05T03:31:42.663Z,78.94
2022-10-05T03:34:33.631Z,79.16
2022-10-05T03:37:15.796Z,78.96
2022-10-05T03:39:54.718Z,79.20
2022-10-05T03:42:41.401Z,78.59
2022-10-05T03:45:41.765Z,79.00
2022-10-05T03:48:21.807Z,78.80
2022-10-05T03:51:51.385Z,78.71
2022-10-05T03:54:31.103Z,79.05
2022-10-05T03:57:07.995Z,78.89
2022-10-05T04:00:05.144Z,79.23
2022-10-05T04:02:51.111Z,78.91
2022-10-05T04:05:28.377Z,79.23
2022-10-05T04:08:10.914Z,78.84
2022-10-05T04:10:51.164Z,79.12
2022-10-05T04:13:50.075Z,78.88
2022-10-05T04:16:28.228Z,79.00
2022-10-05T04:19:14.022Z,77.97
2022-10-05T04:21:57.215Z,78.49
2022-10-05T04:24:37.761Z,78.63
2022-10-05T04:27:32.442Z,78.88
2022-10-05T04:30:16.891Z,78.93
2022-10-05T04:32:50.437Z,78.80
2022-10-05T04:35:53.682Z,78.86
2022-10-05T04:39:07.314Z,78.38
2022-10-05T04:42:27.131Z,79.08
2022-10-05T04:45:28.093Z,78.97
2022-10-05T04:48:03.415Z,79.16
2022-10-05T04:50:48.255Z,78.54
2022-10-05T04:53:31.382Z,78.64
2022-10-05T04:56:10.446Z,78.88
2022-10-05T04:58:59.280Z,78.59
2022-10-05T05:02:00.022Z,79.04
2022-10-05T05:04:52.039Z,79.14
2022-10-05T05:07:35.305Z,79.42
2022-10-05T05:10:34.732Z,78.96
2022-10-05T05:13:43.508Z,78.66
2022-10-05T05:16:27.540Z,79.06
2022-10-05T05:19:18.537Z,79.12
2022-10-05T05:22:26.079Z,78.64
2022-10-05T05:25:35.772Z,79.40
2022-10-05T05:28:30.323Z,79.42
2022-10-05T05:31:10.266Z,79.21
2022-10-05T05:34:07.483Z,78.72
2022-10-05T05:37:01.898Z,79.66
2022-10-05T05:39:52.176Z,79.25
2022-10-05T05:42:43.803Z,79.43
2022-10-05T05:45:42.830Z,79.05
2022-10-05T05:48:41.547Z,79.77
2022-10-05T05:51:16.071Z,79.71
2022-10-05T05:53:51.167Z,79.75
2022-10-05T05:56:36.280Z,79.90
2022-10-05T05:59:22.592Z,80.18
2022-10-05T06:01:56.709Z,80.00
2022-10-05T06:04:39.348Z,80.39
2022-10-05T06:07:07.280Z,80.01
2022-10-05T06:09:42.152Z,80.73
2022-10-05T06:12:25.358Z,80.73
2022-10-05T06:15:29.555Z,81.10
2022-10-05T06:18:03.513Z,81.54
2022-10-05T06:20:55.115Z,81.53
2022-10-05T06:23:45.077Z,81.99
2022-10-05T06:26:36.652Z,81.69
2022-10-05T06:29:15.917Z,81.91
2022-10-05T06:32:05.218Z,82.10
2022-10-05T06:34:50.519Z,82.25
2022-10-05T06:37:37.738Z,82.43
2022-10-05T06:40:46.067Z,82.74
2022-10-05T06:43:58.688Z,82.97
2022-10-05T06:47:19.711Z,83.49
2022-10-05T06:54:23.142Z,83.68
2022-10-05T06:57:13.674Z,83.54
2022-10-05T07:00:00.464Z,83.76
2022-10-05T07:02:36.985Z,83.60
2022-10-05T07:05:44.558Z,83.75
2022-10-05T07:09:11.784Z,83.90
2022-10-05T07:12:13.184Z,84.21
2022-10-05T07:15:29.768Z,84.16
2022-10-05T07:18:28.126Z,84.96
2022-10-05T07:21:19.171Z,84.56
2022-10-05T07:23:59.636Z,84.95
2022-10-05T07:26:51.561Z,85.21
2022-10-05T07:29:22.344Z,84.96
2022-10-05T07:32:14.894Z,84.97
2022-10-05T07:35:33.390Z,85.14
2022-10-05T07:38:12.259Z,85.00
2022-10-05T07:40:53.944Z,85.58
2022-10-05T07:44:01.383Z,86.04
2022-10-05T07:47:03.769Z,85.81
2022-10-05T07:49:46.273Z,86.23
2022-10-05T07:52:23.282Z,85.87
2022-10-05T07:54:59.704Z,86.03
2022-10-05T07:57:52.112Z,86.23
2022-10-05T08:00:22.487Z,86.14
2022-10-05T08:02:58.554Z,85.94
2022-10-05T08:05:31.953Z,86.25
2022-10-05T08:08:23.419Z,86.45
2022-10-05T08:10:55.443Z,86.79
2022-10-05T08:13:52.025Z,86.88
2022-10-05T08:16:19.768Z,87.11
2022-10-05T08:19:15.290Z,87.49
2022-10-05T08:21:52.693Z,87.46
2022-10-05T08:25:01.766Z,87.54
2022-10-05T08:27:57.472Z,87.89
2022-10-05T08:30:25.033Z,87.51
2022-10-05T08:33:14.934Z,87.84
2022-10-05T08:35:46.121Z,87.76
2022-10-05T08:38:20.423Z,87.51
2022-10-05T08:41:10.876Z,87.29
2022-10-05T08:44:02.451Z,87.07
2022-10-05T08:46:57.589Z,87.37
2022-10-05T08:50:06.769Z,88.03
2022-10-05T08:53:07.345Z,87.55
2022-10-05T08:55:46.409Z,87.56
2022-10-05T08:58:44.637Z,87.75
2022-10-05T09:01:35.922Z,87.61
2022-10-05T09:04:51.303Z,87.63
2022-10-05T09:07:43.451Z,88.00
2022-10-05T09:11:01.371Z,88.07
2022-10-05T09:13:52.522Z,87.52
2022-10-05T09:17:13.676Z,87.80
2022-10-05T09:20:23.338Z,86.99
2022-10-05T09:23:15.591Z,87.46
2022-10-05T09:25:54.897Z,87.08
2022-10-05T09:29:13.967Z,87.85
2022-10-05T09:32:27.993Z,88.25
2022-10-05T09:35:30.392Z,88.46
2022-10-05T09:38:39.550Z,88.15
2022-10-05T09:41:27.394Z,88.22
2022-10-05T09:44:37.887Z,88.44
2022-10-05T09:47:19.890Z,87.78
2022-10-05T09:50:08.212Z,87.81
2022-10-05T09:53:09.623Z,87.51
2022-10-05T09:56:16.272Z,87.53
2022-10-05T09:59:19.583Z,87.42
2022-10-05T10:02:14.075Z,86.80
2022-10-05T10:05:05.775Z,86.70
2022-10-05T10:07:35.704Z,86.41
2022-10-05T10:10:40.889Z,86.34
2022-10-05T10:13:43.381Z,86.16
2022-10-05T10:16:57.989Z,85.94
2022-10-05T10:19:48.940Z,84.32
2022-10-05T10:22:52.970Z,84.68
2022-10-05T10:25:56.819Z,84.17
2022-10-05T10:28:44.884Z,83.56
2022-10-05T10:31:30.140Z,82.99
2022-10-05T10:34:55.806Z,82.41
2022-10-05T10:37:59.405Z,82.76
2022-10-05T10:41:03.889Z,81.62
2022-10-05T10:43:42.165Z,81.17
2022-10-05T10:46:28.725Z,77.01
2022-10-05T10:49:41.479Z,76.68
2022-10-05T10:52:33.922Z,76.51
2022-10-05T10:56:00.484Z,77.08
2022-10-05T10:59:12.516Z,77.69
2022-10-05T11:02:30.064Z,77.72
2022-10-05T11:05:24.810Z,77.44
2022-10-05T11:08:20.098Z,77.40
2022-10-05T11:11:31.015Z,75.69
2022-10-05T11:14:21.095Z,74.53
2022-10-05T11:17:25.568Z,75.20
2022-10-05T11:20:04.090Z,74.64
2022-10-05T11:23:04.162Z,73.65
2022-10-05T11:26:43.539Z,73.64
2022-10-05T11:29:46.717Z,73.88
2022-10-05T11:36:33.570Z,73.67
2022-10-05T11:39:12.032Z,73.22
2022-10-05T11:42:06.308Z,72.77
2022-10-05T11:44:43.425Z,71.93
2022-10-05T11:47:58.878Z,72.44
2022-10-05T11:50:42.713Z,71.01
2022-10-05T11:53:51.456Z,71.01
2022-10-05T11:56:50.771Z,71.45
2022-10-05T11:59:35.400Z,70.26
2022-10-05T12:02:33.075Z,69.01
2022-10-05T12:05:47.345Z,68.59
2022-10-05T12:08:38.319Z,67.88
2022-10-05T12:11:34.176Z,67.47
2022-10-05T12:14:13.969Z,66.11
2022-10-05T12:16:58.913Z,66.28
2022-10-05T12:19:42.106Z,66.25
2022-10-05T12:22:22.057Z,65.68
2022-10-05T12:25:26.474Z,66.29
2022-10-05T12:28:00.119Z,67.03
2022-10-05T12:31:10.285Z,67.21
2022-10-05T12:34:08.031Z,66.54
2022-10-05T12:37:03.637Z,65.04
2022-10-05T12:40:19.983Z,65.14
2022-10-05T12:42:59.358Z,66.04
2022-10-05T12:46:08.368Z,64.98
2022-10-05T12:48:53.124Z,64.78
2022-10-05T12:51:35.761Z,65.43
2022-10-05T12:54:24.831Z,65.46
2022-10-05T12:56:55.855Z,65.42
2022-10-05T12:59:25.771Z,64.92
2022-10-05T13:02:04.471Z,63.18
2022-10-05T13:04:39.457Z,62.93
2022-10-05T13:07:43.251Z,62.62
2022-10-05T13:10:37.903Z,61.90
2022-10-05T13:13:23.544Z,62.83
2022-10-05T13:16:15.378Z,62.88
2022-10-05T13:19:16.666Z,62.73
2022-10-05T13:21:47.395Z,63.19
2022-10-05T13:24:42.483Z,60.79
2022-10-05T13:27:22.508Z,61.59
2022-10-05T13:30:20.142Z,61.25
2022-10-05T13:33:05.741Z,61.12
2022-10-05T13:36:00.353Z,60.83
2022-10-05T13:38:54.835Z,61.72
2022-10-05T13:41:24.577Z,61.86
2022-10-05T13:44:02.493Z,61.04
2022-10-05T13:46:43.021Z,60.88
2022-10-05T13:52:56.719Z,61.15
2022-10-05T13:55:54.434Z,60.91
2022-10-05T13:58:36.530Z,60.97
2022-10-05T14:01:16.240Z,60.30
2022-10-05T14:04:16.598Z,61.02
2022-10-05T14:06:45.063Z,60.50
2022-10-05T14:09:22.162Z,60.11
2022-10-05T14:12:08.605Z,60.45
2022-10-05T14:14:49.739Z,60.14
2022-10-05T14:17:37.702Z,59.24
2022-10-05T14:20:20.635Z,58.81
2022-10-05T14:22:55.449Z,60.23
2022-10-05T14:25:23.356Z,59.70
2022-10-05T14:27:59.658Z,59.90
2022-10-05T14:30:30.223Z,59.88
2022-10-05T14:33:03.305Z,59.91
2022-10-05T14:35:55.570Z,61.46
2022-10-05T14:38:29.786Z,60.51
2022-10-05T14:41:19.146Z,61.17
2022-10-05T14:44:13.750Z,60.89
2022-10-05T14:47:01.398Z,60.88
2022-10-05T14:49:36.148Z,61.29
2022-10-05T14:52:29.373Z,61.45
2022-10-05T14:55:17.884Z,61.25
2022-10-05T14:58:26.148Z,61.34
2022-10-05T15:01:11.302Z,61.22
2022-10-05T15:04:02.645Z,59.61
2022-10-05T15:06:37.648Z,60.58
2022-10-05T15:09:52.980Z,60.32
2022-10-05T15:12:40.572Z,61.23
2022-10-05T15:15:37.185Z,61.20
2022-10-05T15:18:21.190Z,61.87
2022-10-05T15:21:21.027Z,62.02
2022-10-05T15:24:05.701Z,62.15
2022-10-05T15:26:57.098Z,62.25
2022-10-05T15:29:52.430Z,62.83
2022-10-05T15:32:41.729Z,62.34
2022-10-05T15:36:04.671Z,62.97
2022-10-05T15:39:00.077Z,62.27
2022-10-05T15:41:49.369Z,62.94
2022-10-05T15:44:57.793Z,62.56
2022-10-05T15:47:28.025Z,62.79
2022-10-05T15:50:33.212Z,62.35
2022-10-05T15:53:18.782Z,62.34
2022-10-05T15:56:10.134Z,63.26
2022-10-05T15:59:02.963Z,63.07
2022-10-05T16:01:33.137Z,62.47
2022-10-05T16:04:45.926Z,62.86
2022-10-05T16:07:41.667Z,62.81
2022-10-05T16:10:22.163Z,62.96
2022-10-05T16:13:23.197Z,63.60
2022-10-05T16:16:08.095Z,63.77
2022-10-05T16:18:50.142Z,63.99
2022-10-05T16:22:09.079Z,64.07
2022-10-05T16:25:08.980Z,63.85
2022-10-05T16:28:05.278Z,64.40
2022-10-05T16:30:58.792Z,64.89
2022-10-05T16:33:57.904Z,65.57
2022-10-05T16:36:40.515Z,66.13
2022-10-05T16:39:31.161Z,66.20
2022-10-05T16:42:14.271Z,66.29
2022-10-05T16:48:30.842Z,67.10
2022-10-05T16:57:32.374Z,67.51
2022-10-05T17:00:23.858Z,67.52
2022-10-05T17:36:08.579Z,69.83
2022-10-05T17:38:36.019Z,69.76
2022-10-05T17:41:18.102Z,70.11
2022-10-05T17:44:16.303Z,69.88
2022-10-05T17:47:04.870Z,70.22
2022-10-05T17:49:37.812Z,70.39
2022-10-05T17:52:53.702Z,70.72
2022-10-05T17:55:34.590Z,70.81
2022-10-05T17:58:26.178Z,71.34
2022-10-05T18:01:00.728Z,71.31
2022-10-05T18:03:44.120Z,71.44
2022-10-05T18:06:26.387Z,71.42
2022-10-05T18:09:20.629Z,71.44
2022-10-05T18:12:19.306Z,71.57
2022-10-05T18:15:05.456Z,71.17
2022-10-05T18:17:54.669Z,71.43
2022-10-05T18:20:27.868Z,71.53
2022-10-05T18:23:23.959Z,71.02
2022-10-05T18:26:15.982Z,71.44
2022-10-05T18:29:52.931Z,71.33
2022-10-05T18:32:54.445Z,71.65
2022-10-05T18:35:40.238Z,71.54
2022-10-05T18:38:28.333Z,71.52
2022-10-05T18:41:28.412Z,71.43
2022-10-05T18:44:14.166Z,72.12
2022-10-05T18:46:57.933Z,71.98
2022-10-05T18:49:58.483Z,71.90
2022-10-05T18:53:07.740Z,72.02
2022-10-05T18:56:04.035Z,72.23
2022-10-05T18:58:36.325Z,71.87
2022-10-05T19:01:29.897Z,71.59
2022-10-05T19:04:04.964Z,71.61
2022-10-05T19:07:09.792Z,71.91
2022-10-05T19:09:58.027Z,71.70
2022-10-05T19:12:49.974Z,71.91
2022-10-05T19:15:51.409Z,71.92
2022-10-05T19:19:04.582Z,71.91
2022-10-05T19:21:57.189Z,72.24
2022-10-05T19:24:32.959Z,72.39
2022-10-05T19:27:34.439Z,71.90
2022-10-05T19:30:21.970Z,71.91
2022-10-05T19:32:58.179Z,72.45
2022-10-05T19:35:46.132Z,73.10
2022-10-05T19:38:29.580Z,72.68
2022-10-05T19:41:22.543Z,73.22
2022-10-05T19:44:16.963Z,73.29
2022-10-05T19:47:02.420Z,73.08
2022-10-05T19:49:57.699Z,73.71
2022-10-05T19:52:41.279Z,73.83
2022-10-05T19:55:16.007Z,73.95
2022-10-05T19:57:49.991Z,74.30
2022-10-05T20:00:30.461Z,74.69
2022-10-05T20:03:17.488Z,74.67
2022-10-05T20:05:45.284Z,74.64
2022-10-05T20:08:18.117Z,74.69
2022-10-05T20:11:15.638Z,75.01
2022-10-05T20:13:52.733Z,75.08
2022-10-05T20:16:52.917Z,74.64
2022-10-05T20:19:34.954Z,75.34
2022-10-05T20:22:34.454Z,75.36
2022-10-05T20:25:05.711Z,75.55
2022-10-05T20:27:39.880Z,74.99
2022-10-05T20:30:09.875Z,75.04
2022-10-05T20:32:36.848Z,75.03
2022-10-05T20:35:05.087Z,75.11
2022-10-05T20:37:32.024Z,74.92
2022-10-05T20:39:59.588Z,75.10
2022-10-05T20:42:26.708Z,75.49
2022-10-05T20:44:56.883Z,75.34
2022-10-05T20:47:25.501Z,75.35
2022-10-05T20:49:56.247Z,75.51
2022-10-05T20:52:23.911Z,75.56
2022-10-05T20:54:57.200Z,75.66
2022-10-05T20:59:52.448Z,75.92
2022-10-05T21:02:20.208Z,75.96
2022-10-05T21:04:48.110Z,75.60
2022-10-05T21:07:17.991Z,76.02
2022-10-05T21:09:46.652Z,75.97
2022-10-05T21:12:14.306Z,75.56
2022-10-05T21:14:41.500Z,75.68
2022-10-05T21:19:40.551Z,75.36
2022-10-05T21:22:09.779Z,76.25
2022-10-05T21:24:39.767Z,75.97
2022-10-05T21:27:08.115Z,75.83
2022-10-05T21:29:37.540Z,75.75
2022-10-05T21:32:08.834Z,75.71
2022-10-05T21:34:36.202Z,75.97
2022-10-05T21:37:04.119Z,76.47
2022-10-05T21:39:31.594Z,76.69
2022-10-05T21:41:58.885Z,76.60
2022-10-05T21:44:26.063Z,76.38
2022-10-05T21:46:53.406Z,76.84
2022-10-05T21:49:21.030Z,76.22
2022-10-05T21:51:48.732Z,76.01
2022-10-05T21:54:20.930Z,76.43
2022-10-05T21:56:55.997Z,76.69
2022-10-05T21:59:28.273Z,76.70
2022-10-05T22:01:55.623Z,75.82
2022-10-05T22:04:22.832Z,76.26
2022-10-05T22:06:50.095Z,75.97
2022-10-05T22:09:17.503Z,76.17
2022-10-05T22:11:48.097Z,76.04
2022-10-05T22:14:16.276Z,76.16
2022-10-05T22:16:44.812Z,76.28
2022-10-05T22:19:17.904Z,76.58
2022-10-05T22:21:45.230Z,76.53
2022-10-05T22:24:12.504Z,76.57
2022-10-05T22:26:42.764Z,76.40
2022-10-05T22:29:09.925Z,76.39
2022-10-05T22:31:38.421Z,76.82
2022-10-05T22:34:06.311Z,76.56
2022-10-05T22:36:36.343Z,76.69
2022-10-05T22:39:04.631Z,76.37
2022-10-05T22:41:31.763Z,77.10
2022-10-05T22:43:59.366Z,76.79
2022-10-05T22:46:26.432Z,76.20
2022-10-05T22:48:53.468Z,76.49
2022-10-05T22:51:20.414Z,76.54
2022-10-05T22:53:47.848Z,76.75
2022-10-05T22:56:16.582Z,76.47
2022-10-05T22:58:45.427Z,76.21
2022-10-05T23:01:16.798Z,76.30
2022-10-05T23:03:44.923Z,76.34
2022-10-05T23:06:18.758Z,76.33
2022-10-05T23:08:46.812Z,76.64
2022-10-05T23:11:21.913Z,75.94
2022-10-05T23:13:52.257Z,76.38
2022-10-05T23:16:22.305Z,76.18
2022-10-05T23:18:52.025Z,77.15
2022-10-05T23:21:22.246Z,76.66
2022-10-05T23:23:51.176Z,76.56
2022-10-05T23:26:22.556Z,76.80
2022-10-05T23:28:50.502Z,76.55
2022-10-05T23:31:27.092Z,76.82
2022-10-05T23:33:54.282Z,76.39
2022-10-05T23:36:24.853Z,76.70
2022-10-05T23:38:52.451Z,76.70
2022-10-05T23:41:20.015Z,77.33
2022-10-05T23:43:47.345Z,76.66
2022-10-05T23:46:14.529Z,77.11
2022-10-05T23:48:41.458Z,76.23
2022-10-05T23:51:12.406Z,76.50
2022-10-05T23:53:39.525Z,76.68
2022-10-05T23:56:07.279Z,77.24
2022-10-05T23:58:34.890Z,76.68
